Fleet, Virginia
Current Conditions -  °F | °C
As of 1:59 PM on Thursday 30 Oct 2014 (Local Time) from KNGU Reporting Station
Few Clouds Few Clouds  
Wind Chill: 64°   Ceiling: Unl
Heat Index: 64°   Visibility: 10mi
Dew Point: 47°   Wind: 15mph
Humidity: 54%   Direction: 20°NNE
Pressure: 30.02"   Gusts: NA
Location:  36.9343°N, 76.284°W
Report Text: KNGU 301759Z 02013KT 10SM FEW040 18/08 A3002 RMK AO2 SLP165 T01780083 10183 20139 58013 $
Loading
Personal Weather Stations






























Interactive Weather Map
Tropical Storm Tracking
New forecast layout! Learn more

10-Day Weather Forecast

Advertisements
Track Severe Weather on mobile